Time;durP1;ratioP1;P1;durP2;ratioP2;P2;SDS_P1;SDS_P2;PMS_P1;PMS_P2;Temp;Humidity;BMP_temperature;BMP_pressure;BME280_temperature;BME280_humidity;BME280_pressure;Samples;Min_cycle;Max_cycle;Signal;HPM_P1;HPM_P2
2022/06/06 00:02:23;;;;;;;5.13;2.50;;;;;;;;;;10515937;28;20041;-83
2022/06/06 00:07:27;;;;;;;4.45;2.38;;;;;;;;;;10517119;28;20131;-84
2022/06/06 00:12:29;;;;;;;4.23;2.37;;;;;;;;;;10514554;28;20048;-81
2022/06/06 00:17:34;;;;;;;5.60;2.37;;;;;;;;;;10521786;28;20296;-81
2022/06/06 00:22:37;;;;;;;4.13;2.13;;;;;;;;;;10509954;28;20113;-83
2022/06/06 00:27:40;;;;;;;5.18;2.38;;;;;;;;;;10517453;28;20077;-83
2022/06/06 00:38:05;;;;;;;3.22;2.22;;;;;;;;;;10504711;28;19934;-82
2022/06/06 00:43:09;;;;;;;5.32;2.45;;;;;;;;;;10512727;28;20068;-84
2022/06/06 00:48:15;;;;;;;6.43;2.75;;;;;;;;;;10513337;28;20090;-82
2022/06/06 00:53:21;;;;;;;4.80;2.95;;;;;;;;;;10506747;28;20066;-82
2022/06/06 00:58:25;;;;;;;8.45;3.10;;;;;;;;;;10516210;28;20032;-82
2022/06/06 01:03:29;;;;;;;6.55;2.58;;;;;;;;;;10511722;28;20044;-83
2022/06/06 01:08:35;;;;;;;7.30;3.40;;;;;;;;;;10512513;28;20078;-82
2022/06/06 01:13:41;;;;;;;6.53;3.00;;;;;;;;;;10515419;28;20036;-82
2022/06/06 01:18:49;;;;;;;8.45;2.88;;;;;;;;;;10510511;28;20044;-83
2022/06/06 01:24:05;;;;;;;5.53;2.65;;;;;;;;;;10507979;28;20045;-82
2022/06/06 01:29:19;;;;;;;5.68;3.13;;;;;;;;;;10509237;28;20095;-82
2022/06/06 01:34:33;;;;;;;4.63;2.97;;;;;;;;;;10519172;28;20147;-83
2022/06/06 01:39:42;;;;;;;5.47;2.92;;;;;;;;;;10516397;28;20047;-82
2022/06/06 01:44:46;;;;;;;;;;;;;;;;;;10502617;28;20049;-83
2022/06/06 01:49:51;;;;;;;7.20;2.87;;;;;;;;;;10513415;28;19997;-83
2022/06/06 01:54:54;;;;;;;5.53;3.13;;;;;;;;;;10510336;28;20032;-84
2022/06/06 01:59:57;;;;;;;4.95;2.67;;;;;;;;;;10521013;28;20553;-83
2022/06/06 02:05:02;;;;;;;5.17;2.90;;;;;;;;;;10510718;28;20059;-83
2022/06/06 02:10:05;;;;;;;5.25;2.70;;;;;;;;;;10508973;28;20048;-83
2022/06/06 02:15:10;;;;;;;4.68;2.60;;;;;;;;;;10510441;28;20036;-82
2022/06/06 02:20:15;;;;;;;8.93;2.80;;;;;;;;;;10501047;28;20058;-83
2022/06/06 02:25:18;;;;;;;7.28;2.85;;;;;;;;;;10505435;28;20474;-83
2022/06/06 02:30:22;;;;;;;5.55;3.08;;;;;;;;;;10498529;28;20041;-81
2022/06/06 02:35:29;;;;;;;7.05;2.90;;;;;;;;;;10510162;28;20043;-85
2022/06/06 02:40:32;;;;;;;6.15;2.90;;;;;;;;;;10516983;28;20036;-84
2022/06/06 02:45:35;;;;;;;4.83;3.13;;;;;;;;;;10508491;28;20058;-85
2022/06/06 02:50:45;;;;;;;8.82;3.17;;;;;;;;;;10510032;28;20056;-84
2022/06/06 02:55:50;;;;;;;6.65;2.58;;;;;;;;;;10510313;28;20496;-85
2022/06/06 03:00:57;;;;;;;3.78;2.30;;;;;;;;;;10508774;28;20039;-85
2022/06/06 03:06:09;;;;;;;5.18;2.72;;;;;;;;;;10516235;28;20128;-85
2022/06/06 03:11:19;;;;;;;5.65;2.97;;;;;;;;;;10524114;28;20047;-84
2022/06/06 03:22:00;;;;;;;6.45;2.97;;;;;;;;;;10518041;28;20040;-84
2022/06/06 03:27:11;;;;;;;6.13;3.03;;;;;;;;;;10519741;28;20454;-84
2022/06/06 03:32:21;;;;;;;6.65;2.97;;;;;;;;;;10515648;28;20066;-84
2022/06/06 03:37:28;;;;;;;5.32;2.95;;;;;;;;;;10514501;28;20058;-83
2022/06/06 03:42:35;;;;;;;5.30;3.03;;;;;;;;;;10508076;28;20473;-84
2022/06/06 03:47:45;;;;;;;6.28;3.00;;;;;;;;;;10511032;28;20043;-80
2022/06/06 03:52:53;;;;;;;4.65;2.67;;;;;;;;;;10516433;28;20390;-81
2022/06/06 03:57:57;;;;;;;5.53;3.05;;;;;;;;;;10515116;28;20133;-81
2022/06/06 04:03:00;;;;;;;4.50;2.33;;;;;;;;;;10515886;28;20036;-80
2022/06/06 04:08:05;;;;;;;4.00;2.20;;;;;;;;;;10510844;28;20032;-82
2022/06/06 04:13:12;;;;;;;3.90;2.60;;;;;;;;;;10508207;28;20036;-81
2022/06/06 04:18:26;;;;;;;5.55;2.50;;;;;;;;;;10493950;28;20032;-80
2022/06/06 04:23:40;;;;;;;4.53;2.60;;;;;;;;;;10499543;28;20036;-83
2022/06/06 04:28:47;;;;;;;4.55;2.63;;;;;;;;;;10514807;28;20032;-84
2022/06/06 04:33:55;;;;;;;4.65;2.72;;;;;;;;;;10509919;28;20090;-81
2022/06/06 04:39:04;;;;;;;4.78;2.95;;;;;;;;;;10511902;28;20496;-82
2022/06/06 04:44:10;;;;;;;8.10;3.13;;;;;;;;;;10516112;28;20040;-81
2022/06/06 04:49:14;;;;;;;7.22;3.20;;;;;;;;;;10514661;28;20060;-83
2022/06/06 04:54:19;;;;;;;3.97;1.90;;;;;;;;;;10516434;28;20045;-84
2022/06/06 04:59:30;;;;;;;4.57;2.63;;;;;;;;;;10512798;28;20060;-83
2022/06/06 05:04:32;;;;;;;3.30;2.30;;;;;;;;;;10515260;28;20657;-84
2022/06/06 05:09:56;;;;;;;6.68;2.55;;;;;;;;;;10517899;28;20036;-83
2022/06/06 05:15:09;;;;;;;3.65;2.10;;;;;;;;;;10500434;28;20550;-83
2022/06/06 05:20:23;;;;;;;3.42;2.00;;;;;;;;;;10515659;28;20028;-84
2022/06/06 05:25:33;;;;;;;2.75;1.88;;;;;;;;;;10518841;28;20052;-85
2022/06/06 05:30:48;;;;;;;3.10;1.98;;;;;;;;;;10510956;28;20365;-81
2022/06/06 05:36:09;;;;;;;4.07;2.00;;;;;;;;;;10510842;28;20040;-82
2022/06/06 05:41:16;;;;;;;5.03;2.00;;;;;;;;;;10509379;28;20044;-80
2022/06/06 05:46:26;;;;;;;4.38;2.20;;;;;;;;;;10514316;28;20188;-85
2022/06/06 05:51:38;;;;;;;5.80;2.00;;;;;;;;;;10512141;28;20136;-85
2022/06/06 05:56:59;;;;;;;5.38;2.22;;;;;;;;;;10500781;28;20040;-85
2022/06/06 06:02:10;;;;;;;4.25;1.90;;;;;;;;;;10512952;28;20688;-84
2022/06/06 06:07:18;;;;;;;4.20;2.15;;;;;;;;;;10507743;28;20598;-84
2022/06/06 06:12:29;;;;;;;4.38;2.00;;;;;;;;;;10516060;28;20033;-83
2022/06/06 06:17:37;;;;;;;5.55;2.08;;;;;;;;;;10519051;28;20037;-82
2022/06/06 06:22:46;;;;;;;4.13;2.28;;;;;;;;;;10502987;28;20064;-83
2022/06/06 06:27:50;;;;;;;2.55;1.75;;;;;;;;;;10522893;28;20063;-85
2022/06/06 06:33:07;;;;;;;3.03;2.30;;;;;;;;;;10517391;28;20036;-85
2022/06/06 06:38:17;;;;;;;5.28;2.40;;;;;;;;;;10512668;28;20048;-85
2022/06/06 06:43:36;;;;;;;4.03;2.60;;;;;;;;;;10517700;28;20040;-81
2022/06/06 06:48:44;;;;;;;6.20;1.98;;;;;;;;;;10512949;28;20086;-81
2022/06/06 06:54:01;;;;;;;6.70;3.40;;;;;;;;;;10514042;28;20101;-81
2022/06/06 06:59:08;;;;;;;3.88;2.55;;;;;;;;;;10509585;28;20032;-81
2022/06/06 07:10:04;;;;;;;4.05;2.25;;;;;;;;;;10441151;28;20068;-81
2022/06/06 07:15:09;;;;;;;4.72;2.17;;;;;;;;;;10509657;28;20040;-83
2022/06/06 07:20:14;;;;;;;3.53;2.15;;;;;;;;;;10507286;28;20036;-81
2022/06/06 07:25:17;;;;;;;4.97;2.40;;;;;;;;;;10508338;28;20576;-82
2022/06/06 07:30:21;;;;;;;4.20;2.65;;;;;;;;;;10517490;28;20094;-82
2022/06/06 07:35:31;;;;;;;4.65;2.63;;;;;;;;;;10511703;28;20067;-85
2022/06/06 07:40:45;;;;;;;3.10;2.45;;;;;;;;;;10516646;28;20032;-84
2022/06/06 07:45:49;;;;;;;3.38;2.13;;;;;;;;;;10511977;28;20066;-85
2022/06/06 07:50:58;;;;;;;4.70;2.35;;;;;;;;;;10521908;28;20063;-84
2022/06/06 07:56:04;;;;;;;4.47;2.50;;;;;;;;;;10512522;28;20078;-84
2022/06/06 08:01:10;;;;;;;4.07;2.22;;;;;;;;;;10527262;28;20073;-83
2022/06/06 08:06:20;;;;;;;4.47;2.50;;;;;;;;;;10517590;28;20040;-83
2022/06/06 08:11:29;;;;;;;4.78;2.35;;;;;;;;;;10528537;28;20039;-83
2022/06/06 08:16:36;;;;;;;3.40;2.38;;;;;;;;;;10514586;28;20044;-82
2022/06/06 08:21:42;;;;;;;6.07;2.35;;;;;;;;;;10509975;28;20083;-81
2022/06/06 08:26:48;;;;;;;23.88;12.90;;;;;;;;;;10529718;28;20037;-81
2022/06/06 08:31:50;;;;;;;3.28;2.50;;;;;;;;;;10533637;28;20044;-79
2022/06/06 08:37:08;;;;;;;3.80;2.30;;;;;;;;;;10522789;28;20062;-79
2022/06/06 08:42:22;;;;;;;3.33;2.72;;;;;;;;;;10520425;28;20705;-83
2022/06/06 08:47:30;;;;;;;4.57;2.40;;;;;;;;;;10526543;28;20036;-82
2022/06/06 08:52:52;;;;;;;4.38;2.80;;;;;;;;;;10521723;28;20110;-82
2022/06/06 08:58:07;;;;;;;3.38;2.50;;;;;;;;;;10517291;28;20081;-83
2022/06/06 09:03:28;;;;;;;3.15;2.85;;;;;;;;;;10504335;28;20428;-85
2022/06/06 09:08:51;;;;;;;3.53;2.58;;;;;;;;;;10514394;28;20044;-82
2022/06/06 09:14:17;;;;;;;3.83;2.65;;;;;;;;;;10511105;28;20154;-82
2022/06/06 09:19:34;;;;;;;6.80;3.10;;;;;;;;;;10505963;28;20040;-80
2022/06/06 09:25:07;;;;;;;4.00;2.40;;;;;;;;;;10503893;28;20056;-79
2022/06/06 09:30:19;;;;;;;3.75;2.70;;;;;;;;;;10508778;28;20041;-81
2022/06/06 09:35:33;;;;;;;4.85;3.13;;;;;;;;;;10516991;28;20052;-81
2022/06/06 09:40:59;;;;;;;3.17;2.28;;;;;;;;;;10510633;28;20056;-81
2022/06/06 09:46:23;;;;;;;4.53;2.40;;;;;;;;;;10517056;28;20062;-82
2022/06/06 09:51:44;;;;;;;3.63;2.90;;;;;;;;;;10480004;28;20079;-81
2022/06/06 10:02:44;;;;;;;4.13;2.10;;;;;;;;;;10515188;28;20036;-83
2022/06/06 10:08:01;;;;;;;3.85;2.67;;;;;;;;;;10512663;28;20537;-86
2022/06/06 10:13:09;;;;;;;4.03;2.65;;;;;;;;;;10512934;22;20036;-77
2022/06/06 10:18:20;;;;;;;2.55;2.35;;;;;;;;;;10353146;28;20045;-78
2022/06/06 10:23:28;;;;;;;2.55;2.35;;;;;;;;;;10354526;28;20495;-76
2022/06/06 10:28:39;;;;;;;3.28;2.40;;;;;;;;;;10362275;28;20088;-75
2022/06/06 10:33:50;;;;;;;4.30;1.90;;;;;;;;;;10349022;28;20049;-77
2022/06/06 10:39:10;;;;;;;4.55;2.97;;;;;;;;;;10351702;28;20505;-77
2022/06/06 10:44:23;;;;;;;5.05;4.05;;;;;;;;;;10355574;28;20038;-77
2022/06/06 10:49:32;;;;;;;4.40;2.10;;;;;;;;;;10350440;28;20116;-78
2022/06/06 10:54:55;;;;;;;2.05;1.85;;;;;;;;;;10345559;28;20045;-76
2022/06/06 11:00:06;;;;;;;4.20;2.75;;;;;;;;;;10349095;28;20041;-76
2022/06/06 11:05:28;;;;;;;3.45;2.13;;;;;;;;;;10345661;28;20042;-76
2022/06/06 11:10:50;;;;;;;2.40;2.15;;;;;;;;;;10340120;28;20034;-78
2022/06/06 11:16:05;;;;;;;4.78;2.50;;;;;;;;;;10339586;28;20502;-77
2022/06/06 11:21:32;;;;;;;3.10;2.25;;;;;;;;;;10348615;28;20130;-77
2022/06/06 11:26:43;;;;;;;12.70;7.25;;;;;;;;;;10343625;28;20053;-75
2022/06/06 11:31:52;;;;;;;4.07;2.30;;;;;;;;;;10344296;28;20061;-78
2022/06/06 11:37:07;;;;;;;3.08;2.65;;;;;;;;;;10355163;28;20462;-77
2022/06/06 11:42:18;;;;;;;3.95;2.35;;;;;;;;;;10356296;28;20925;-79
2022/06/06 11:47:33;;;;;;;12.00;7.82;;;;;;;;;;10352615;28;20129;-79
2022/06/06 11:52:55;;;;;;;7.53;4.00;;;;;;;;;;10355643;28;20134;-75
2022/06/06 11:58:15;;;;;;;4.82;2.53;;;;;;;;;;10356849;28;20080;-76
2022/06/06 12:03:38;;;;;;;4.20;2.67;;;;;;;;;;10459969;28;20063;-77
2022/06/06 12:08:59;;;;;;;3.42;2.80;;;;;;;;;;10437958;28;20057;-78
2022/06/06 12:14:16;;;;;;;4.78;2.50;;;;;;;;;;10447770;28;20037;-79
2022/06/06 12:19:46;;;;;;;3.97;2.17;;;;;;;;;;10417342;28;20397;-77
2022/06/06 12:25:23;;;;;;;2.53;2.20;;;;;;;;;;10407327;28;20076;-79
2022/06/06 12:30:34;;;;;;;2.28;2.08;;;;;;;;;;10433577;28;20094;-77
2022/06/06 12:35:41;;;;;;;3.80;2.17;;;;;;;;;;10421411;28;20109;-77
2022/06/06 12:41:01;;;;;;;3.92;2.17;;;;;;;;;;10434263;28;20377;-77
2022/06/06 12:46:27;;;;;;;2.80;2.30;;;;;;;;;;10452730;28;20036;-79
2022/06/06 12:51:43;;;;;;;5.40;3.20;;;;;;;;;;10428587;28;20110;-77
2022/06/06 12:56:56;;;;;;;2.85;2.10;;;;;;;;;;10421038;28;20496;-76
2022/06/06 13:02:01;;;;;;;4.70;2.42;;;;;;;;;;10445129;28;20478;-76
2022/06/06 13:07:17;;;;;;;3.70;2.80;;;;;;;;;;10450152;28;20055;-77
2022/06/06 13:12:27;;;;;;;4.05;2.03;;;;;;;;;;10428047;28;20034;-75
2022/06/06 13:17:34;;;;;;;3.37;2.20;;;;;;;;;;10429415;28;20587;-78
2022/06/06 13:22:46;;;;;;;3.95;2.60;;;;;;;;;;10452495;28;20033;-77
2022/06/06 13:27:59;;;;;;;10.05;6.68;;;;;;;;;;10436616;28;20043;-77
2022/06/06 13:33:10;;;;;;;3.53;2.20;;;;;;;;;;10431581;28;20033;-78
2022/06/06 13:38:26;;;;;;;4.72;1.92;;;;;;;;;;10433472;28;20438;-78
2022/06/06 13:43:37;;;;;;;5.05;2.17;;;;;;;;;;10424202;28;20079;-76
2022/06/06 13:49:01;;;;;;;5.50;2.55;;;;;;;;;;10430179;28;20110;-79
2022/06/06 13:54:07;;;;;;;2.47;2.28;;;;;;;;;;10416607;28;20049;-77
2022/06/06 13:59:18;;;;;;;4.95;2.20;;;;;;;;;;10437178;28;20033;-77
2022/06/06 14:04:31;;;;;;;2.30;1.92;;;;;;;;;;10410525;28;20073;-77
2022/06/06 14:09:39;;;;;;;3.80;1.80;;;;;;;;;;10431151;28;20037;-77
2022/06/06 14:14:43;;;;;;;3.35;2.40;;;;;;;;;;10421387;28;20038;-78
2022/06/06 14:19:55;;;;;;;3.72;2.28;;;;;;;;;;10418283;28;20064;-79
2022/06/06 14:25:01;;;;;;;2.60;1.90;;;;;;;;;;10410834;28;20473;-77
2022/06/06 14:30:07;;;;;;;5.43;3.45;;;;;;;;;;10425499;28;20362;-76
2022/06/06 14:35:27;;;;;;;2.70;1.85;;;;;;;;;;10411067;28;20131;-78
2022/06/06 14:40:41;;;;;;;2.28;1.90;;;;;;;;;;10411932;28;20049;-77
2022/06/06 14:45:45;;;;;;;5.38;2.10;;;;;;;;;;10440695;28;20095;-78
2022/06/06 14:50:53;;;;;;;2.97;2.03;;;;;;;;;;10437694;28;20034;-77
2022/06/06 14:55:59;;;;;;;4.07;2.17;;;;;;;;;;10429314;28;20044;-78
2022/06/06 15:01:03;;;;;;;2.67;2.08;;;;;;;;;;10429740;28;20037;-76
2022/06/06 15:06:08;;;;;;;5.45;3.22;;;;;;;;;;10428124;28;20123;-76
2022/06/06 15:11:21;;;;;;;5.72;2.78;;;;;;;;;;10428538;28;20041;-77
2022/06/06 15:16:26;;;;;;;2.70;2.20;;;;;;;;;;10428505;28;20112;-78
2022/06/06 15:21:33;;;;;;;3.40;2.20;;;;;;;;;;10409186;28;20087;-78
2022/06/06 15:26:40;;;;;;;3.78;2.30;;;;;;;;;;10410570;28;20048;-78
2022/06/06 15:31:50;;;;;;;3.10;1.88;;;;;;;;;;10430993;28;20645;-76
2022/06/06 15:36:56;;;;;;;5.40;2.22;;;;;;;;;;10432032;28;20048;-77
2022/06/06 15:42:06;;;;;;;9.10;5.18;;;;;;;;;;10418501;28;20160;-78
2022/06/06 15:47:13;;;;;;;2.78;2.03;;;;;;;;;;10436190;28;20202;-76
2022/06/06 15:52:28;;;;;;;3.92;2.40;;;;;;;;;;10412732;28;20130;-75
2022/06/06 15:57:38;;;;;;;3.38;2.10;;;;;;;;;;10434456;28;20125;-75
2022/06/06 16:02:42;;;;;;;3.78;1.90;;;;;;;;;;10441680;28;20473;-76
2022/06/06 16:07:58;;;;;;;5.07;2.28;;;;;;;;;;10430555;28;20041;-76
2022/06/06 16:13:11;;;;;;;3.97;1.80;;;;;;;;;;10440415;28;20065;-75
2022/06/06 16:18:17;;;;;;;2.42;1.85;;;;;;;;;;10443330;28;20116;-78
2022/06/06 16:23:28;;;;;;;6.38;2.30;;;;;;;;;;10430510;28;20077;-77
2022/06/06 16:28:33;;;;;;;3.58;2.30;;;;;;;;;;10435175;28;20135;-78
2022/06/06 16:33:38;;;;;;;2.20;1.88;;;;;;;;;;10439312;28;20453;-75
2022/06/06 16:39:14;;;;;;;3.55;2.40;;;;;;;;;;10453423;28;20029;-77
2022/06/06 16:50:00;;;;;;;3.60;2.08;;;;;;;;;;10460122;28;20424;-75
2022/06/06 16:55:05;;;;;;;3.78;2.10;;;;;;;;;;10441999;28;20050;-75
2022/06/06 17:00:19;;;;;;;2.35;1.88;;;;;;;;;;10439463;28;20219;-75
2022/06/06 17:10:53;;;;;;;4.40;2.28;;;;;;;;;;10401960;28;20280;-77
2022/06/06 17:15:58;;;;;;;2.53;2.00;;;;;;;;;;10451015;28;20087;-79
2022/06/06 17:21:16;;;;;;;2.33;2.00;;;;;;;;;;10451995;28;20047;-77
2022/06/06 17:26:33;;;;;;;5.28;2.78;;;;;;;;;;10415214;28;20073;-78
2022/06/06 17:31:48;;;;;;;4.30;2.72;;;;;;;;;;10417624;28;20091;-76
2022/06/06 17:36:57;;;;;;;3.22;2.30;;;;;;;;;;10420231;28;20055;-78
2022/06/06 17:42:19;;;;;;;3.67;2.30;;;;;;;;;;10435782;28;20029;-78
2022/06/06 17:47:26;;;;;;;4.55;2.17;;;;;;;;;;10436073;28;20091;-76
2022/06/06 17:52:35;;;;;;;2.80;2.00;;;;;;;;;;10424561;28;20085;-77
2022/06/06 17:57:41;;;;;;;7.50;4.25;;;;;;;;;;10404054;28;20391;-76
2022/06/06 18:02:59;;;;;;;3.50;2.20;;;;;;;;;;10435633;28;20032;-77
2022/06/06 18:08:16;;;;;;;4.95;3.25;;;;;;;;;;10427863;28;20056;-78
2022/06/06 18:13:30;;;;;;;4.53;2.45;;;;;;;;;;10432287;28;20072;-78
2022/06/06 18:18:36;;;;;;;8.20;5.07;;;;;;;;;;10431357;28;20038;-77
2022/06/06 18:23:43;;;;;;;4.60;2.88;;;;;;;;;;10424267;28;20076;-77
2022/06/06 18:28:49;;;;;;;3.28;2.55;;;;;;;;;;10435299;28;20538;-78
2022/06/06 18:34:03;;;;;;;3.42;2.20;;;;;;;;;;10421170;28;20048;-81
2022/06/06 18:39:06;;;;;;;5.65;2.90;;;;;;;;;;10437213;28;20041;-79
2022/06/06 18:44:17;;;;;;;7.15;3.70;;;;;;;;;;10424747;28;20848;-81
2022/06/06 18:49:22;;;;;;;8.07;4.88;;;;;;;;;;10416978;28;20068;-77
2022/06/06 18:54:27;;;;;;;8.10;4.25;;;;;;;;;;10388314;28;20051;-77
2022/06/06 18:59:37;;;;;;;6.03;3.63;;;;;;;;;;10415955;28;20383;-76
2022/06/06 19:04:45;;;;;;;6.47;2.40;;;;;;;;;;10425654;28;20041;-77
2022/06/06 19:09:55;;;;;;;3.00;2.20;;;;;;;;;;10403275;28;20187;-77
2022/06/06 19:14:59;;;;;;;4.63;2.53;;;;;;;;;;10430050;28;20088;-76
2022/06/06 19:20:04;;;;;;;4.53;2.22;;;;;;;;;;10431426;28;20057;-78
2022/06/06 19:25:12;;;;;;;4.55;2.53;;;;;;;;;;10400360;28;20143;-77
2022/06/06 19:30:16;;;;;;;11.32;5.70;;;;;;;;;;10410754;28;20068;-78
2022/06/06 19:35:23;;;;;;;5.57;2.72;;;;;;;;;;10429370;28;20079;-76
2022/06/06 19:40:32;;;;;;;5.28;2.88;;;;;;;;;;10441497;28;20086;-76
2022/06/06 19:45:37;;;;;;;5.50;3.15;;;;;;;;;;10417069;28;20432;-73
2022/06/06 19:50:42;;;;;;;4.40;3.05;;;;;;;;;;10442962;28;20033;-75
2022/06/06 19:55:48;;;;;;;4.72;2.90;;;;;;;;;;10423436;28;20141;-77
2022/06/06 20:00:52;;;;;;;5.88;2.90;;;;;;;;;;10429313;28;20092;-76
2022/06/06 20:05:58;;;;;;;4.95;2.85;;;;;;;;;;10453084;28;20037;-76
2022/06/06 20:11:07;;;;;;;6.22;3.72;;;;;;;;;;10457296;28;20036;-76
2022/06/06 20:16:30;;;;;;;4.15;2.80;;;;;;;;;;10448328;28;20568;-77
2022/06/06 20:21:35;;;;;;;5.47;2.63;;;;;;;;;;10454890;28;20154;-77
2022/06/06 20:26:38;;;;;;;5.15;2.97;;;;;;;;;;10454071;28;20068;-76
2022/06/06 20:37:13;;;;;;;4.20;2.20;;;;;;;;;;10434947;28;20084;-76
2022/06/06 20:42:21;;;;;;;5.22;2.33;;;;;;;;;;10448464;28;20556;-76
2022/06/06 20:47:25;;;;;;;3.42;2.47;;;;;;;;;;10459856;28;20411;-76
2022/06/06 20:52:32;;;;;;;4.47;3.03;;;;;;;;;;10447813;28;20130;-77
2022/06/06 20:57:37;;;;;;;4.50;2.78;;;;;;;;;;10435407;28;20063;-75
2022/06/06 21:02:40;;;;;;;4.80;3.10;;;;;;;;;;10450978;28;20428;-76
2022/06/06 21:07:45;;;;;;;6.82;3.55;;;;;;;;;;10455038;28;20057;-76
2022/06/06 21:12:47;;;;;;;3.70;2.20;;;;;;;;;;10452566;28;20037;-76
2022/06/06 21:17:50;;;;;;;5.97;2.90;;;;;;;;;;10432969;28;20132;-76
2022/06/06 21:22:56;;;;;;;4.28;2.70;;;;;;;;;;10414981;28;20040;-76
2022/06/06 21:27:59;;;;;;;6.40;3.42;;;;;;;;;;10420481;28;20127;-77
2022/06/06 21:33:02;;;;;;;3.03;2.10;;;;;;;;;;10410197;28;20025;-77
2022/06/06 21:38:06;;;;;;;2.88;1.70;;;;;;;;;;10411614;28;20111;-77
2022/06/06 21:43:09;;;;;;;2.45;1.67;;;;;;;;;;10405594;28;20113;-76
2022/06/06 21:48:13;;;;;;;2.63;2.00;;;;;;;;;;10424411;28;20451;-77
2022/06/06 21:53:17;;;;;;;3.40;2.30;;;;;;;;;;10414111;28;20466;-77
2022/06/06 21:58:21;;;;;;;4.32;2.00;;;;;;;;;;10412730;28;20139;-76
2022/06/06 22:03:24;;;;;;;4.07;1.92;;;;;;;;;;10424888;28;20033;-76
2022/06/06 22:08:28;;;;;;;3.78;1.92;;;;;;;;;;10426376;28;20125;-76
2022/06/06 22:13:31;;;;;;;3.05;2.17;;;;;;;;;;10420225;28;20069;-77
2022/06/06 22:18:34;;;;;;;4.25;2.30;;;;;;;;;;10419624;28;20095;-76
2022/06/06 22:23:40;;;;;;;3.88;2.50;;;;;;;;;;10411615;28;20435;-77
2022/06/06 22:28:44;;;;;;;4.00;2.10;;;;;;;;;;10421496;28;20056;-79
2022/06/06 22:33:47;;;;;;;4.47;2.70;;;;;;;;;;10395780;28;20044;-78
2022/06/06 22:38:52;;;;;;;3.50;2.70;;;;;;;;;;10412870;28;20118;-74
2022/06/06 22:43:55;;;;;;;4.30;2.47;;;;;;;;;;10426224;28;20488;-77
2022/06/06 22:49:16;;;;;;;3.13;2.00;;;;;;;;;;10411360;28;20039;-76
2022/06/06 22:54:20;;;;;;;2.85;2.25;;;;;;;;;;10429941;28;20040;-77
2022/06/06 22:59:23;;;;;;;3.67;2.30;;;;;;;;;;10435170;28;20037;-77
2022/06/06 23:04:27;;;;;;;3.30;2.53;;;;;;;;;;10429553;28;20076;-77
2022/06/06 23:09:31;;;;;;;5.20;2.42;;;;;;;;;;10417828;28;20051;-78
2022/06/06 23:14:34;;;;;;;5.18;2.60;;;;;;;;;;10428603;28;20107;-76
2022/06/06 23:19:37;;;;;;;7.45;2.80;;;;;;;;;;10428583;28;20059;-78
2022/06/06 23:24:41;;;;;;;4.53;2.83;;;;;;;;;;10418487;28;20156;-79
2022/06/06 23:29:43;;;;;;;6.15;3.28;;;;;;;;;;10410596;28;20049;-79
2022/06/06 23:34:46;;;;;;;6.53;3.60;;;;;;;;;;10428559;28;20049;-77
2022/06/06 23:39:52;;;;;;;5.85;3.65;;;;;;;;;;10430634;28;20303;-77
2022/06/06 23:50:20;;;;;;;6.85;3.20;;;;;;;;;;10412246;28;20135;-74
2022/06/06 23:55:25;;;;;;;9.60;4.75;;;;;;;;;;10425145;28;20562;-76
